createdAt,value
2023-05-18T00:01:12.534Z,37.29
2023-05-18T00:03:15.585Z,37.36
2023-05-18T00:05:18.200Z,37.35
2023-05-18T00:07:20.038Z,37.13
2023-05-18T00:09:21.846Z,37.23
2023-05-18T00:11:23.516Z,37.13
2023-05-18T00:13:25.325Z,37.33
2023-05-18T00:15:27.795Z,37.05
2023-05-18T00:17:30.985Z,37.16
2023-05-18T00:19:33.932Z,37.71
2023-05-18T00:21:36.999Z,37.60
2023-05-18T00:23:40.385Z,37.55
2023-05-18T00:25:42.285Z,37.99
2023-05-18T00:27:44.917Z,38.04
2023-05-18T00:29:47.292Z,37.96
2023-05-18T00:31:49.074Z,38.65
2023-05-18T00:33:52.313Z,38.40
2023-05-18T00:35:57.490Z,38.92
2023-05-18T00:37:59.232Z,38.54
2023-05-18T00:40:00.889Z,39.04
2023-05-18T00:42:04.834Z,39.41
2023-05-18T00:44:06.763Z,39.33
2023-05-18T00:46:08.977Z,39.44
2023-05-18T00:48:10.796Z,39.22
2023-05-18T00:50:14.532Z,39.19
2023-05-18T00:52:16.498Z,39.38
2023-05-18T00:54:18.934Z,39.40
2023-05-18T00:56:22.681Z,39.24
2023-05-18T00:58:25.338Z,39.50
2023-05-18T01:00:28.124Z,39.54
2023-05-18T01:02:30.153Z,39.63
2023-05-18T01:04:31.974Z,40.26
2023-05-18T01:06:35.131Z,39.98
2023-05-18T01:08:37.718Z,39.60
2023-05-18T01:10:43.463Z,40.21
2023-05-18T01:12:50.880Z,40.31
2023-05-18T01:14:59.660Z,40.24
2023-05-18T01:17:10.945Z,40.31
2023-05-18T01:19:34.116Z,38.68
2023-05-18T01:21:56.778Z,38.29
2023-05-18T01:24:12.271Z,38.38
2023-05-18T01:26:17.038Z,38.33
2023-05-18T01:28:20.832Z,38.47
2023-05-18T01:30:23.577Z,38.17
2023-05-18T01:32:25.584Z,38.68
2023-05-18T01:34:27.446Z,39.16
2023-05-18T01:36:29.193Z,39.63
2023-05-18T01:38:30.996Z,39.80
2023-05-18T01:40:37.338Z,40.14
2023-05-18T01:42:51.637Z,40.25
2023-05-18T01:44:59.135Z,39.52
2023-05-18T01:47:04.478Z,39.67
2023-05-18T01:49:16.921Z,39.00
2023-05-18T01:51:20.933Z,39.99
2023-05-18T01:53:27.917Z,39.81
2023-05-18T01:55:31.189Z,39.64
2023-05-18T01:57:35.080Z,39.45
2023-05-18T01:59:38.992Z,40.15
2023-05-18T02:01:40.889Z,39.72
2023-05-18T02:03:43.872Z,39.61
2023-05-18T02:05:45.715Z,39.26
2023-05-18T02:07:50.843Z,39.20
2023-05-18T02:09:52.480Z,39.41
2023-05-18T02:11:54.341Z,38.97
2023-05-18T02:13:56.045Z,39.70
2023-05-18T02:15:59.401Z,39.87
2023-05-18T02:18:01.237Z,39.48
2023-05-18T02:20:02.911Z,39.27
2023-05-18T02:22:05.090Z,38.97
2023-05-18T02:24:07.750Z,39.01
2023-05-18T02:26:09.476Z,38.42
2023-05-18T02:28:11.475Z,39.16
2023-05-18T02:30:15.796Z,39.54
2023-05-18T02:32:19.269Z,39.95
2023-05-18T02:34:21.151Z,40.91
2023-05-18T02:36:22.746Z,41.41
2023-05-18T02:38:25.589Z,41.61
2023-05-18T02:40:27.208Z,41.81
2023-05-18T02:42:31.324Z,41.89
2023-05-18T02:44:33.364Z,42.08
2023-05-18T02:46:35.071Z,42.11
2023-05-18T02:48:38.253Z,42.38
2023-05-18T02:50:40.064Z,41.89
2023-05-18T02:52:42.026Z,42.23
2023-05-18T02:54:43.798Z,42.02
2023-05-18T02:56:45.546Z,42.43
2023-05-18T02:58:47.218Z,42.50
2023-05-18T03:00:49.578Z,42.99
2023-05-18T03:02:53.469Z,43.13
2023-05-18T03:04:56.563Z,43.09
2023-05-18T03:06:58.476Z,43.39
2023-05-18T03:09:00.171Z,43.45
2023-05-18T03:11:02.021Z,43.48
2023-05-18T03:13:03.945Z,44.08
2023-05-18T03:15:06.725Z,43.61
2023-05-18T03:17:08.440Z,43.91
2023-05-18T03:19:15.292Z,44.07
2023-05-18T03:21:18.267Z,44.42
2023-05-18T03:23:21.020Z,44.20
2023-05-18T03:25:22.756Z,44.29
2023-05-18T03:27:24.461Z,44.56
2023-05-18T03:29:26.170Z,44.68
2023-05-18T03:31:28.212Z,44.53
2023-05-18T03:33:29.854Z,44.18
2023-05-18T03:35:31.731Z,44.59
2023-05-18T03:37:34.920Z,43.95
2023-05-18T03:39:36.607Z,43.51
2023-05-18T03:41:38.295Z,43.37
2023-05-18T03:43:42.280Z,43.17
2023-05-18T03:45:44.233Z,43.09
2023-05-18T03:47:50.931Z,42.86
2023-05-18T03:49:52.917Z,42.85
2023-05-18T03:51:54.719Z,42.61
2023-05-18T03:53:58.484Z,42.38
2023-05-18T03:56:02.490Z,42.51
2023-05-18T03:58:05.570Z,42.70
2023-05-18T04:00:08.229Z,42.44
2023-05-18T04:02:10.027Z,42.19
2023-05-18T04:04:11.657Z,41.96
2023-05-18T04:06:13.714Z,42.17
2023-05-18T04:08:15.810Z,42.36
2023-05-18T04:10:19.404Z,42.07
2023-05-18T04:12:23.338Z,42.14
2023-05-18T04:14:25.263Z,42.22
2023-05-18T04:16:27.761Z,42.01
2023-05-18T04:18:29.693Z,42.33
2023-05-18T04:20:31.567Z,42.26
2023-05-18T04:22:35.780Z,41.99
2023-05-18T04:24:37.423Z,42.29
2023-05-18T04:26:41.068Z,41.94
2023-05-18T04:28:42.727Z,41.88
2023-05-18T04:30:44.612Z,42.01
2023-05-18T04:32:46.585Z,42.10
2023-05-18T04:34:48.467Z,42.19
2023-05-18T04:36:50.181Z,42.10
2023-05-18T04:38:52.322Z,41.75
2023-05-18T04:40:53.995Z,43.04
2023-05-18T04:42:57.367Z,42.35
2023-05-18T04:44:59.367Z,42.54
2023-05-18T04:47:01.257Z,42.87
2023-05-18T04:49:02.997Z,42.76
2023-05-18T04:51:04.673Z,42.89
2023-05-18T04:53:06.529Z,43.21
2023-05-18T04:55:09.116Z,43.80
2023-05-18T04:57:11.454Z,43.96
2023-05-18T04:59:14.567Z,44.60
2023-05-18T05:01:16.326Z,45.01
2023-05-18T05:03:18.205Z,45.12
2023-05-18T05:05:20.788Z,44.55
2023-05-18T05:07:22.574Z,43.60
2023-05-18T05:09:24.728Z,42.64
2023-05-18T05:11:27.963Z,42.35
2023-05-18T05:13:29.900Z,41.91
2023-05-18T05:15:33.104Z,42.03
2023-05-18T05:17:35.038Z,41.69
2023-05-18T05:19:37.170Z,41.97
2023-05-18T05:21:38.752Z,41.97
2023-05-18T05:23:40.376Z,41.65
2023-05-18T05:25:42.072Z,41.57
2023-05-18T05:27:43.911Z,41.38
2023-05-18T05:29:46.980Z,41.18
2023-05-18T05:31:50.053Z,41.50
2023-05-18T05:33:51.746Z,41.66
2023-05-18T05:35:53.541Z,41.55
2023-05-18T05:37:55.474Z,41.89
2023-05-18T05:39:57.080Z,41.83
2023-05-18T05:41:58.684Z,42.12
2023-05-18T05:44:00.437Z,42.16
2023-05-18T05:46:02.812Z,41.80
2023-05-18T05:48:06.384Z,41.83
2023-05-18T05:50:08.320Z,41.55
2023-05-18T05:52:09.958Z,41.68
2023-05-18T05:54:11.546Z,41.81
2023-05-18T05:56:13.185Z,41.77
2023-05-18T05:58:14.861Z,41.67
2023-05-18T06:00:17.225Z,41.82
2023-05-18T06:02:19.042Z,41.78
2023-05-18T06:04:22.134Z,41.42
2023-05-18T06:06:23.984Z,41.44
2023-05-18T06:08:25.942Z,41.27
2023-05-18T06:10:27.876Z,41.50
2023-05-18T06:12:29.569Z,41.30
2023-05-18T06:14:31.262Z,41.42
2023-05-18T06:16:32.975Z,40.93
2023-05-18T06:18:34.869Z,41.30
2023-05-18T06:20:38.795Z,40.84
2023-05-18T06:22:40.540Z,40.87
2023-05-18T06:24:42.212Z,41.14
2023-05-18T06:26:43.793Z,41.00
2023-05-18T06:28:45.359Z,41.03
2023-05-18T06:30:46.947Z,40.67
2023-05-18T06:32:48.804Z,40.69
2023-05-18T06:34:50.495Z,40.45
2023-05-18T06:36:53.854Z,40.83
2023-05-18T06:38:55.465Z,40.74
2023-05-18T06:40:57.076Z,40.31
2023-05-18T06:42:58.663Z,40.36
2023-05-18T06:45:00.335Z,39.63
2023-05-18T06:47:01.979Z,39.97
2023-05-18T06:49:04.153Z,39.54
2023-05-18T06:51:05.816Z,38.68
2023-05-18T06:53:08.778Z,39.69
2023-05-18T06:55:10.612Z,39.19
2023-05-18T06:57:12.364Z,39.21
2023-05-18T06:59:13.980Z,39.12
2023-05-18T07:01:15.956Z,39.03
2023-05-18T07:03:17.666Z,38.81
2023-05-18T07:05:19.559Z,38.70
2023-05-18T07:07:21.352Z,38.37
2023-05-18T07:09:25.403Z,38.97
2023-05-18T07:11:29.492Z,38.75
2023-05-18T07:13:31.344Z,39.14
2023-05-18T07:15:41.769Z,38.88
2023-05-18T07:17:43.500Z,38.67
2023-05-18T07:19:45.121Z,39.99
2023-05-18T07:21:46.761Z,39.79
2023-05-18T07:23:48.478Z,38.48
2023-05-18T07:25:51.535Z,37.89
2023-05-18T07:27:54.143Z,38.62
2023-05-18T07:29:55.884Z,38.35
2023-05-18T07:31:57.727Z,39.35
2023-05-18T07:33:59.625Z,37.32
2023-05-18T07:36:01.185Z,38.16
2023-05-18T07:38:02.804Z,37.31
2023-05-18T07:40:05.140Z,37.39
2023-05-18T07:42:08.812Z,37.34
2023-05-18T07:44:10.643Z,36.40
2023-05-18T07:46:12.320Z,36.17
2023-05-18T07:48:14.028Z,37.64
2023-05-18T07:50:15.734Z,36.49
2023-05-18T07:52:17.553Z,36.65
2023-05-18T07:54:19.138Z,36.23
2023-05-18T07:56:20.924Z,37.04
2023-05-18T07:58:23.897Z,35.30
2023-05-18T08:00:25.513Z,35.43
2023-05-18T08:02:27.222Z,35.68
2023-05-18T08:04:29.088Z,37.34
2023-05-18T08:06:30.706Z,37.24
2023-05-18T08:08:32.314Z,37.08
2023-05-18T08:10:33.983Z,36.56
2023-05-18T08:12:35.700Z,35.68
2023-05-18T08:14:38.626Z,35.65
2023-05-18T08:16:40.239Z,35.95
2023-05-18T08:18:42.197Z,36.34
2023-05-18T08:20:43.919Z,36.94
2023-05-18T08:22:45.548Z,36.80
2023-05-18T08:24:47.198Z,35.85
2023-05-18T08:26:48.782Z,36.03
2023-05-18T08:28:50.379Z,36.39
2023-05-18T08:30:53.642Z,37.38
2023-05-18T08:32:55.335Z,35.23
2023-05-18T08:34:57.189Z,37.09
2023-05-18T08:36:58.769Z,38.52
2023-05-18T08:39:00.527Z,36.26
2023-05-18T08:41:15.043Z,35.79
2023-05-18T08:43:21.457Z,34.18
2023-05-18T08:45:32.798Z,32.48
2023-05-18T08:47:37.803Z,32.59
2023-05-18T08:49:41.731Z,34.07
2023-05-18T08:51:46.544Z,35.57
2023-05-18T08:53:52.477Z,35.48
2023-05-18T08:55:54.452Z,32.81
2023-05-18T08:57:59.097Z,32.07
2023-05-18T09:00:01.827Z,33.23
2023-05-18T09:02:04.958Z,32.24
2023-05-18T09:04:09.548Z,32.25
2023-05-18T09:06:11.495Z,31.75
2023-05-18T09:08:13.574Z,31.96
2023-05-18T09:10:15.368Z,32.11
2023-05-18T09:12:18.904Z,31.81
2023-05-18T09:14:20.852Z,31.88
2023-05-18T09:16:22.559Z,32.22
2023-05-18T09:18:26.161Z,31.66
2023-05-18T09:20:31.027Z,32.44
2023-05-18T09:22:33.327Z,31.60
2023-05-18T09:24:35.008Z,31.42
2023-05-18T09:26:36.879Z,30.74
2023-05-18T09:28:40.324Z,31.19
2023-05-18T09:30:42.690Z,30.49
2023-05-18T09:32:46.782Z,30.78
2023-05-18T09:34:48.926Z,30.60
2023-05-18T09:36:52.059Z,31.93
2023-05-18T09:38:53.725Z,30.78
2023-05-18T09:40:55.496Z,30.25
2023-05-18T09:42:57.086Z,30.67
2023-05-18T09:44:58.790Z,30.17
2023-05-18T09:47:00.974Z,29.22
2023-05-18T09:49:04.092Z,29.96
2023-05-18T09:51:06.330Z,30.98
2023-05-18T09:53:10.232Z,29.10
2023-05-18T09:55:12.764Z,29.99
2023-05-18T09:57:14.460Z,29.68
2023-05-18T09:59:16.396Z,29.96
2023-05-18T10:01:18.136Z,30.31
2023-05-18T10:03:21.512Z,29.56
2023-05-18T10:05:24.642Z,29.27
2023-05-18T10:07:26.324Z,32.95
2023-05-18T10:09:29.350Z,29.70
2023-05-18T10:11:35.146Z,29.73
2023-05-18T10:13:36.885Z,29.77
2023-05-18T10:15:46.031Z,29.64
2023-05-18T10:17:48.970Z,29.18
2023-05-18T10:19:54.590Z,29.74
2023-05-18T10:21:56.281Z,28.82
2023-05-18T10:23:59.537Z,29.36
2023-05-18T10:26:05.106Z,28.80
2023-05-18T10:28:10.069Z,28.32
2023-05-18T10:30:14.228Z,29.94
2023-05-18T10:32:17.224Z,30.05
2023-05-18T10:34:19.067Z,29.51
2023-05-18T10:36:23.500Z,28.81
2023-05-18T10:38:28.714Z,28.16
2023-05-18T10:40:30.650Z,29.70
2023-05-18T10:42:34.936Z,28.71
2023-05-18T10:44:39.407Z,28.28
2023-05-18T10:46:41.815Z,29.38
2023-05-18T10:48:48.040Z,28.59
2023-05-18T10:50:50.725Z,34.41
2023-05-18T10:52:53.327Z,28.24
2023-05-18T10:54:55.277Z,28.32
2023-05-18T10:56:57.076Z,28.16
2023-05-18T10:59:00.233Z,28.11
2023-05-18T11:01:05.325Z,27.34
2023-05-18T11:03:10.572Z,28.46
2023-05-18T11:05:12.753Z,29.12
2023-05-18T11:07:15.884Z,29.41
2023-05-18T11:09:23.512Z,29.83
2023-05-18T11:11:25.332Z,27.92
2023-05-18T11:13:29.475Z,28.10
2023-05-18T11:16:08.774Z,27.92
2023-05-18T11:18:13.787Z,27.87
2023-05-18T11:20:17.448Z,27.49
2023-05-18T11:22:19.075Z,27.32
2023-05-18T11:24:40.792Z,27.41
2023-05-18T11:26:43.654Z,27.62
2023-05-18T11:28:45.358Z,27.88
2023-05-18T11:30:49.900Z,28.12
2023-05-18T11:32:53.185Z,27.71
2023-05-18T11:34:55.566Z,28.74
2023-05-18T11:36:57.154Z,28.29
2023-05-18T11:39:03.952Z,27.47
2023-05-18T11:41:06.580Z,27.44
2023-05-18T11:43:08.195Z,27.12
2023-05-18T11:45:11.513Z,27.46
2023-05-18T11:47:13.232Z,27.98
2023-05-18T11:49:19.900Z,28.97
2023-05-18T11:51:21.609Z,26.81
2023-05-18T11:53:24.096Z,26.40
2023-05-18T11:55:37.522Z,26.20
2023-05-18T11:57:39.867Z,31.53
2023-05-18T11:59:43.572Z,26.43
2023-05-18T12:01:45.423Z,26.40
2023-05-18T12:03:48.575Z,26.56
2023-05-18T12:05:51.835Z,25.96
2023-05-18T12:07:53.887Z,26.22
2023-05-18T12:09:58.193Z,26.29
2023-05-18T12:12:01.162Z,27.27
2023-05-18T12:14:03.401Z,26.15
2023-05-18T12:16:06.424Z,25.79
2023-05-18T12:18:08.121Z,27.25
2023-05-18T12:20:11.252Z,25.70
2023-05-18T12:22:14.662Z,25.28
2023-05-18T12:24:16.282Z,24.82
2023-05-18T12:26:17.855Z,24.32
2023-05-18T12:28:19.531Z,27.40
2023-05-18T12:30:22.784Z,23.98
2023-05-18T12:32:24.736Z,23.91
2023-05-18T12:34:28.783Z,24.04
2023-05-18T12:36:30.376Z,24.10
2023-05-18T12:38:33.694Z,23.30
2023-05-18T12:40:36.506Z,22.34
2023-05-18T12:42:38.110Z,21.23
2023-05-18T12:44:41.179Z,21.42
2023-05-18T12:46:43.129Z,21.58
2023-05-18T12:48:47.652Z,22.16
2023-05-18T12:50:50.774Z,20.11
2023-05-18T12:52:52.719Z,21.54
2023-05-18T12:54:56.874Z,24.18
2023-05-18T12:59:00.879Z,21.55
2023-05-18T13:01:07.689Z,20.46
2023-05-18T13:03:13.827Z,19.21
2023-05-18T13:05:24.129Z,18.63
2023-05-18T13:07:26.227Z,19.98
2023-05-18T13:09:27.862Z,18.62
2023-05-18T13:11:30.844Z,20.14
2023-05-18T13:13:32.948Z,25.45
2023-05-18T13:15:36.492Z,19.12
2023-05-18T13:17:38.481Z,21.02
2023-05-18T13:19:40.130Z,19.22
2023-05-18T13:21:42.260Z,25.56
2023-05-18T13:23:44.037Z,20.88
2023-05-18T13:25:45.803Z,19.00
2023-05-18T13:27:48.786Z,25.55
2023-05-18T13:29:50.399Z,19.96
2023-05-18T13:31:52.073Z,23.50
2023-05-18T13:33:53.769Z,18.78
2023-05-18T13:35:55.355Z,25.07
2023-05-18T13:37:57.230Z,20.72
2023-05-18T13:39:58.857Z,25.34
2023-05-18T13:42:00.467Z,23.40
2023-05-18T13:44:03.865Z,22.28
2023-05-18T13:46:05.609Z,19.08
2023-05-18T13:48:09.425Z,19.31
2023-05-18T13:50:11.748Z,22.54
2023-05-18T13:52:13.434Z,21.87
2023-05-18T13:54:15.035Z,20.25
2023-05-18T13:56:16.706Z,21.01
2023-05-18T13:58:18.345Z,19.21
2023-05-18T14:00:21.555Z,20.13
2023-05-18T14:02:23.208Z,21.30
2023-05-18T14:04:24.853Z,22.46
2023-05-18T14:06:26.456Z,19.52
2023-05-18T14:08:29.628Z,19.01
2023-05-18T14:10:31.581Z,24.68
2023-05-18T14:12:33.781Z,22.27
2023-05-18T14:14:35.479Z,24.73
2023-05-18T14:16:38.487Z,27.14
2023-05-18T14:18:40.249Z,28.53
2023-05-18T14:20:41.943Z,27.60
2023-05-18T14:22:43.541Z,30.08
2023-05-18T14:24:45.118Z,26.26
2023-05-18T14:26:46.721Z,26.49
2023-05-18T14:28:48.721Z,27.61
2023-05-18T14:30:50.374Z,28.04
2023-05-18T14:32:53.435Z,24.97
2023-05-18T14:34:55.170Z,29.75
2023-05-18T14:36:56.890Z,29.15
2023-05-18T14:38:58.524Z,29.03
2023-05-18T14:41:00.170Z,29.55
2023-05-18T14:43:01.738Z,29.00
2023-05-18T14:45:04.128Z,28.37
2023-05-18T14:47:06.036Z,26.19
2023-05-18T14:49:09.109Z,23.23
2023-05-18T14:51:10.768Z,22.54
2023-05-18T14:53:12.497Z,22.97
2023-05-18T14:55:14.136Z,24.66
2023-05-18T14:57:15.899Z,25.11
2023-05-18T14:59:17.488Z,28.92
2023-05-18T15:01:19.980Z,28.79
2023-05-18T15:03:22.834Z,28.41
2023-05-18T15:05:26.538Z,24.36
2023-05-18T15:07:28.229Z,23.29
2023-05-18T15:09:29.860Z,27.85
2023-05-18T15:11:31.511Z,23.67
2023-05-18T15:13:33.129Z,23.65
2023-05-18T15:15:34.749Z,26.30
2023-05-18T15:17:36.384Z,26.92
2023-05-18T15:19:37.992Z,28.28
2023-05-18T15:21:41.006Z,25.14
2023-05-18T15:23:42.675Z,23.25
2023-05-18T15:25:44.837Z,24.80
2023-05-18T15:27:46.397Z,27.26
2023-05-18T15:29:48.252Z,23.37
2023-05-18T15:31:50.034Z,23.16
2023-05-18T15:33:51.904Z,24.06
2023-05-18T15:35:53.468Z,26.78
2023-05-18T15:37:56.655Z,31.47
2023-05-18T15:39:58.468Z,32.15
2023-05-18T15:42:00.140Z,28.44
2023-05-18T15:44:02.033Z,26.79
2023-05-18T15:46:04.449Z,25.75
2023-05-18T15:48:06.777Z,23.66
2023-05-18T15:50:08.989Z,25.42
2023-05-18T15:52:11.023Z,24.44
2023-05-18T15:54:14.024Z,24.17
2023-05-18T15:56:15.651Z,24.05
2023-05-18T15:58:17.323Z,23.41
2023-05-18T16:00:19.515Z,23.90
2023-05-18T16:02:22.585Z,25.67
2023-05-18T16:04:25.368Z,23.55
2023-05-18T16:06:27.025Z,23.05
2023-05-18T16:08:29.426Z,23.03
2023-05-18T16:10:33.730Z,22.99
2023-05-18T16:12:36.998Z,23.54
2023-05-18T16:14:38.617Z,23.53
2023-05-18T16:16:43.257Z,23.66
2023-05-18T16:18:44.935Z,23.30
2023-05-18T16:20:46.585Z,23.40
2023-05-18T16:22:48.232Z,23.59
2023-05-18T16:24:49.829Z,23.79
2023-05-18T16:26:52.829Z,23.90
2023-05-18T16:28:54.443Z,23.74
2023-05-18T16:30:56.114Z,23.61
2023-05-18T16:32:57.833Z,23.46
2023-05-18T16:34:59.435Z,24.44
2023-05-18T16:37:01.010Z,23.67
2023-05-18T16:39:02.820Z,23.81
2023-05-18T16:41:05.349Z,23.83
2023-05-18T16:43:08.911Z,24.29
2023-05-18T16:45:10.939Z,24.13
2023-05-18T16:47:12.552Z,24.34
2023-05-18T16:49:14.137Z,23.92
2023-05-18T16:51:15.770Z,24.15
2023-05-18T16:53:17.523Z,24.29
2023-05-18T16:55:19.365Z,24.99
2023-05-18T16:57:21.070Z,25.41
2023-05-18T16:59:24.125Z,24.48
2023-05-18T17:01:28.637Z,24.52
2023-05-18T17:03:31.003Z,26.83
2023-05-18T17:05:32.987Z,26.45
2023-05-18T17:07:35.203Z,25.73
2023-05-18T17:09:37.033Z,25.70
2023-05-18T17:11:38.745Z,26.86
2023-05-18T17:13:40.385Z,24.98
2023-05-18T17:15:43.680Z,24.05
2023-05-18T17:17:45.342Z,24.22
2023-05-18T17:19:47.024Z,23.94
2023-05-18T17:21:48.864Z,24.50
2023-05-18T17:23:50.588Z,27.41
2023-05-18T17:25:55.243Z,25.65
2023-05-18T17:28:02.655Z,25.05
2023-05-18T17:30:05.334Z,27.18
2023-05-18T17:32:08.383Z,24.71
2023-05-18T17:34:10.012Z,25.48
2023-05-18T17:36:11.691Z,25.85
2023-05-18T17:38:13.269Z,24.49
2023-05-18T17:40:14.942Z,24.47
2023-05-18T17:42:16.633Z,25.04
2023-05-18T17:44:18.520Z,24.82
2023-05-18T17:46:20.273Z,25.02
2023-05-18T17:48:23.600Z,25.37
2023-05-18T17:50:25.220Z,25.31
2023-05-18T17:52:26.848Z,25.63
2023-05-18T17:54:28.538Z,25.81
2023-05-18T17:56:30.285Z,25.72
2023-05-18T17:58:31.861Z,25.45
2023-05-18T18:00:33.660Z,26.05
2023-05-18T18:02:35.374Z,26.05
2023-05-18T18:04:38.380Z,25.94
2023-05-18T18:06:40.153Z,25.94
2023-05-18T18:08:41.819Z,26.38
2023-05-18T18:10:43.480Z,26.10
2023-05-18T18:12:45.197Z,25.82
2023-05-18T18:14:46.900Z,26.16
2023-05-18T18:16:48.618Z,25.99
2023-05-18T18:18:50.724Z,26.22
2023-05-18T18:20:53.699Z,26.09
2023-05-18T18:22:55.242Z,26.97
2023-05-18T18:24:57.001Z,26.29
2023-05-18T18:27:04.506Z,26.23
2023-05-18T18:29:06.331Z,26.87
2023-05-18T18:31:10.849Z,26.40
2023-05-18T18:33:12.960Z,26.69
2023-05-18T18:35:14.873Z,27.28
2023-05-18T18:37:18.301Z,27.00
2023-05-18T18:39:19.968Z,26.72
2023-05-18T18:41:21.763Z,26.70
2023-05-18T18:43:23.416Z,26.67
2023-05-18T18:45:25.096Z,26.74
2023-05-18T18:47:27.023Z,26.61
2023-05-18T18:49:28.709Z,26.68
2023-05-18T18:51:30.389Z,26.50
2023-05-18T18:53:33.481Z,27.33
2023-05-18T18:55:35.187Z,26.71
2023-05-18T18:57:39.193Z,26.93
2023-05-18T18:59:40.832Z,27.44
2023-05-18T19:01:42.852Z,27.14
2023-05-18T19:03:44.513Z,27.39
2023-05-18T19:05:46.198Z,27.83
2023-05-18T19:07:47.932Z,26.92
2023-05-18T19:09:50.861Z,27.21
2023-05-18T19:11:52.494Z,27.37
2023-05-18T19:13:54.171Z,27.41
2023-05-18T19:15:56.107Z,27.64
2023-05-18T19:17:57.980Z,27.49
2023-05-18T19:19:59.714Z,27.66
2023-05-18T19:22:01.354Z,27.80
2023-05-18T19:24:03.178Z,28.03
2023-05-18T19:26:06.283Z,28.35
2023-05-18T19:28:08.005Z,29.20
2023-05-18T19:30:10.279Z,28.25
2023-05-18T19:32:12.139Z,28.61
2023-05-18T19:34:13.825Z,28.15
2023-05-18T19:36:15.711Z,28.20
2023-05-18T19:38:17.592Z,28.79
2023-05-18T19:40:19.593Z,28.51
2023-05-18T19:42:22.834Z,28.47
2023-05-18T19:44:24.466Z,28.87
2023-05-18T19:46:26.176Z,29.10
2023-05-18T19:48:27.982Z,29.08
2023-05-18T19:50:29.640Z,29.67
2023-05-18T19:52:31.375Z,29.45
2023-05-18T19:54:33.208Z,29.58
2023-05-18T19:56:35.435Z,30.13
2023-05-18T19:58:38.759Z,29.63
2023-05-18T20:00:41.206Z,30.42
2023-05-18T20:02:43.963Z,30.01
2023-05-18T20:04:45.654Z,30.02
2023-05-18T20:06:48.245Z,30.21
2023-05-18T20:08:49.993Z,30.71
2023-05-18T20:10:51.623Z,31.74
2023-05-18T20:12:53.351Z,32.09
2023-05-18T20:14:56.460Z,31.79
2023-05-18T20:16:58.567Z,31.86
2023-05-18T20:19:00.590Z,32.54
2023-05-18T20:21:02.362Z,33.11
2023-05-18T20:23:04.110Z,32.89
2023-05-18T20:25:07.050Z,33.30
2023-05-18T20:27:08.745Z,33.68
2023-05-18T20:29:10.512Z,33.96
2023-05-18T20:31:13.536Z,33.34
2023-05-18T20:33:15.272Z,34.20
2023-05-18T20:35:16.965Z,33.99
2023-05-18T20:37:18.742Z,34.35
2023-05-18T20:39:20.533Z,33.99
2023-05-18T20:41:22.103Z,34.18
2023-05-18T20:43:23.838Z,34.15
2023-05-18T20:45:25.569Z,34.38
2023-05-18T20:47:28.570Z,34.62
2023-05-18T20:49:30.309Z,34.94
2023-05-18T20:51:32.012Z,34.62
2023-05-18T20:53:33.648Z,34.45
2023-05-18T20:55:35.345Z,34.67
2023-05-18T20:57:37.077Z,34.76
2023-05-18T20:59:38.706Z,35.02
2023-05-18T21:01:40.407Z,34.89
2023-05-18T21:03:43.768Z,35.18
2023-05-18T21:05:45.610Z,35.17
2023-05-18T21:07:47.269Z,34.88
2023-05-18T21:09:48.909Z,35.18
2023-05-18T21:11:50.575Z,34.75
2023-05-18T21:13:52.476Z,34.33
2023-05-18T21:15:54.210Z,34.28
2023-05-18T21:17:55.994Z,33.76
2023-05-18T21:19:59.415Z,33.60
2023-05-18T21:22:01.308Z,33.29
2023-05-18T21:24:03.198Z,33.68
2023-05-18T21:26:05.069Z,34.46
2023-05-18T21:28:06.888Z,33.63
2023-05-18T21:30:10.025Z,33.47
2023-05-18T21:32:12.054Z,33.84
2023-05-18T21:34:13.823Z,34.10
2023-05-18T21:36:19.219Z,34.06
2023-05-18T21:38:20.886Z,33.65
2023-05-18T21:40:22.764Z,34.03
2023-05-18T21:42:24.377Z,33.88
2023-05-18T21:44:26.200Z,33.74
2023-05-18T21:46:28.455Z,34.00
2023-05-18T21:48:30.151Z,33.79
2023-05-18T21:50:32.026Z,34.23
2023-05-18T21:52:35.219Z,33.98
2023-05-18T21:54:36.902Z,34.47
2023-05-18T21:56:38.609Z,34.47
2023-05-18T21:58:40.332Z,34.73
2023-05-18T22:00:42.031Z,34.06
2023-05-18T22:02:43.846Z,34.28
2023-05-18T22:04:45.517Z,34.35
2023-05-18T22:06:47.331Z,34.51
2023-05-18T22:08:50.551Z,33.92
2023-05-18T22:10:52.254Z,34.48
2023-05-18T22:12:53.860Z,34.39
2023-05-18T22:14:55.605Z,34.89
2023-05-18T22:16:57.317Z,34.27
2023-05-18T22:18:59.060Z,33.64
2023-05-18T22:21:00.716Z,33.87
2023-05-18T22:23:02.385Z,33.78
2023-05-18T22:25:06.316Z,33.60
2023-05-18T22:27:08.204Z,33.82
2023-05-18T22:29:09.962Z,33.87
2023-05-18T22:31:11.912Z,34.02
2023-05-18T22:33:13.624Z,33.94
2023-05-18T22:35:15.735Z,34.18
2023-05-18T22:37:17.586Z,34.27
2023-05-18T22:39:19.356Z,34.48
2023-05-18T22:41:22.922Z,34.57
2023-05-18T22:43:24.540Z,34.78
2023-05-18T22:45:26.238Z,34.60
2023-05-18T22:47:28.077Z,34.41
2023-05-18T22:49:29.646Z,34.45
2023-05-18T22:51:31.188Z,34.28
2023-05-18T22:53:33.082Z,34.26
2023-05-18T22:55:34.804Z,34.22
2023-05-18T22:57:37.892Z,34.80
2023-05-18T22:59:39.560Z,34.68
2023-05-18T23:01:41.448Z,34.57
2023-05-18T23:03:43.149Z,34.57
2023-05-18T23:05:44.909Z,34.50
2023-05-18T23:07:46.531Z,34.95
2023-05-18T23:09:48.245Z,34.69
2023-05-18T23:11:49.876Z,35.00
2023-05-18T23:13:52.880Z,34.89
2023-05-18T23:15:54.543Z,34.77
2023-05-18T23:17:56.350Z,34.93
2023-05-18T23:19:59.010Z,35.35
2023-05-18T23:22:00.633Z,35.21
2023-05-18T23:24:02.357Z,34.74
2023-05-18T23:26:03.999Z,34.85
2023-05-18T23:28:05.647Z,35.25
2023-05-18T23:30:09.542Z,35.06
2023-05-18T23:32:11.177Z,35.21
2023-05-18T23:34:13.380Z,35.23
2023-05-18T23:36:18.698Z,35.55
2023-05-18T23:38:25.106Z,35.25
2023-05-18T23:40:26.839Z,35.56
2023-05-18T23:42:29.119Z,35.07
2023-05-18T23:44:31.274Z,35.48
2023-05-18T23:46:35.204Z,35.59
2023-05-18T23:48:37.397Z,36.13
2023-05-18T23:50:42.991Z,35.07
2023-05-18T23:52:46.963Z,35.10
2023-05-18T23:54:50.672Z,35.59
2023-05-18T23:56:52.880Z,35.30
2023-05-18T23:58:55.030Z,34.96
